Richardson, Texas
Current Conditions -  °F | °C
As of 8:59 PM on Tuesday 21 Oct 2014 (Local Time) from KADS Reporting Station
Clear Clear  
Wind Chill: 73°   Ceiling: Unl
Heat Index: 73°   Visibility: 13mi
Dew Point: 57°   Wind: 8mph
Humidity: 57%   Direction: 100°E
Pressure: 30.06"   Gusts: NA
Location:  32.96°N, 96.73°W
Report Text: KADS 220159Z 10007KT 13SM SKC 23/14 A3006
Loading
Personal Weather Stations






























Interactive Weather Map
Tropical Storm Tracking
New forecast layout! Learn more

10-Day Weather Forecast

Advertisements
Track Severe Weather on mobile